Jackman, Maine
Current Conditions -  °F | °C
As of 5:00 AM on Monday 29 Dec 2014 (Local Time) from CYSC Reporting Station
Broken Clouds Broken Clouds  
Wind Chill: -9°   Ceiling: 7000
Heat Index: -3°   Visibility: 9mi
Dew Point: -8°   Wind: 12mph
Humidity: 69%   Direction: 270°W
Pressure: 29.96"   Gusts: 17mph
Location:  45.62°N, 70.25°W
Report Text: CYSC 291000Z AUTO 27010G15KT 9SM BKN070 M03/M08 A2996 RMK SLP156
Loading
Personal Weather Stations






























Interactive Weather Map New forecast layout! Learn more

10-Day Weather Forecast

Advertisements
Track Severe Weather on mobile